Time;durP1;ratioP1;P1;durP2;ratioP2;P2;SDS_P1;SDS_P2;PMS_P1;PMS_P2;Temp;Humidity;BMP_temperature;BMP_pressure;BME280_temperature;BME280_humidity;BME280_pressure;Samples;Min_cycle;Max_cycle;Signal;HPM_P1;HPM_P2
2021/05/12 00:01:25;;;;;;;12.35;6.68;;;;;;;;;;5027762;28;20029;-85
2021/05/12 00:03:51;;;;;;;12.50;7.40;;;;;;;;;;5036626;28;20401;-85
2021/05/12 00:06:17;;;;;;;11.48;7.03;;;;;;;;;;5027197;28;20028;-85
2021/05/12 00:08:43;;;;;;;8.85;6.30;;;;;;;;;;5020296;28;20033;-85
2021/05/12 00:11:09;;;;;;;12.93;7.30;;;;;;;;;;5045389;28;20068;-85
2021/05/12 00:13:35;;;;;;;9.93;6.75;;;;;;;;;;5040918;28;20071;-85
2021/05/12 00:16:01;;;;;;;9.52;6.50;;;;;;;;;;5027561;28;20060;-85
2021/05/12 00:18:33;;;;;;;11.52;6.50;;;;;;;;;;5042730;28;20029;-85
2021/05/12 00:20:59;;;;;;;12.68;6.15;;;;;;;;;;5025063;28;20030;-85
2021/05/12 00:23:28;;;;;;;7.60;5.88;;;;;;;;;;5028348;28;20029;-85
2021/05/12 00:25:54;;;;;;;9.10;5.68;;;;;;;;;;5053742;28;20075;-85
2021/05/12 00:28:20;;;;;;;8.20;5.72;;;;;;;;;;5053433;28;20063;-85
2021/05/12 00:30:46;;;;;;;7.05;5.32;;;;;;;;;;5064289;28;20449;-85
2021/05/12 00:33:13;;;;;;;8.35;5.60;;;;;;;;;;5066783;28;20038;-85
2021/05/12 00:35:39;;;;;;;8.27;5.47;;;;;;;;;;5072880;28;20499;-85
2021/05/12 00:38:05;;;;;;;7.55;5.30;;;;;;;;;;5066644;28;20040;-85
2021/05/12 00:40:31;;;;;;;9.52;5.55;;;;;;;;;;5057972;28;20016;-85
2021/05/12 00:42:57;;;;;;;10.55;6.20;;;;;;;;;;5069097;28;20044;-85
2021/05/12 00:45:23;;;;;;;11.32;5.72;;;;;;;;;;5060453;28;20075;-85
2021/05/12 00:47:50;;;;;;;9.80;5.68;;;;;;;;;;5068398;28;20085;-85
2021/05/12 00:50:20;;;;;;;9.35;5.53;;;;;;;;;;5069052;28;20028;-85
2021/05/12 00:52:46;;;;;;;11.35;6.07;;;;;;;;;;5063584;28;20060;-86
2021/05/12 00:55:12;;;;;;;9.35;6.18;;;;;;;;;;5059798;28;20369;-86
2021/05/12 00:57:38;;;;;;;12.65;6.70;;;;;;;;;;5060248;28;20025;-86
2021/05/12 01:00:06;;;;;;;12.00;6.70;;;;;;;;;;5064941;28;20131;-85
2021/05/12 01:02:33;;;;;;;8.77;6.38;;;;;;;;;;5054719;28;20036;-85
2021/05/12 01:04:59;;;;;;;11.77;6.38;;;;;;;;;;5067141;28;20024;-85
2021/05/12 01:07:25;;;;;;;12.23;6.93;;;;;;;;;;5064597;28;20024;-85
2021/05/12 01:09:51;;;;;;;11.95;6.70;;;;;;;;;;5071554;28;20032;-85
2021/05/12 01:12:17;;;;;;;7.50;6.07;;;;;;;;;;5070134;28;20057;-85
2021/05/12 01:14:43;;;;;;;14.15;6.80;;;;;;;;;;5052581;28;20115;-85
2021/05/12 01:17:11;;;;;;;9.77;6.05;;;;;;;;;;5052443;28;20183;-85
2021/05/12 01:19:38;;;;;;;11.32;7.22;;;;;;;;;;5065188;28;20073;-85
2021/05/12 01:22:04;;;;;;;9.23;6.55;;;;;;;;;;5065599;28;20043;-85
2021/05/12 01:24:30;;;;;;;10.20;6.57;;;;;;;;;;5067383;28;20102;-85
2021/05/12 01:26:56;;;;;;;12.45;7.05;;;;;;;;;;5023658;28;20116;-85
2021/05/12 01:29:22;;;;;;;10.48;6.70;;;;;;;;;;5025696;28;20037;-85
2021/05/12 01:31:48;;;;;;;9.98;5.90;;;;;;;;;;5032703;28;20056;-85
2021/05/12 01:34:16;;;;;;;10.73;6.60;;;;;;;;;;5026305;28;20040;-85
2021/05/12 01:36:42;;;;;;;9.65;6.93;;;;;;;;;;5028021;28;20480;-85
2021/05/12 01:39:09;;;;;;;8.82;5.53;;;;;;;;;;5036791;28;20071;-85
2021/05/12 01:41:35;;;;;;;12.73;6.15;;;;;;;;;;5029642;28;20047;-85
2021/05/12 01:44:03;;;;;;;11.25;6.88;;;;;;;;;;5030421;28;20381;-85
2021/05/12 01:46:30;;;;;;;9.00;6.38;;;;;;;;;;5028439;28;20128;-85
2021/05/12 01:48:56;;;;;;;11.32;6.57;;;;;;;;;;5027075;28;20063;-85
2021/05/12 01:51:22;;;;;;;9.80;6.07;;;;;;;;;;5030053;28;20183;-85
2021/05/12 01:53:48;;;;;;;8.45;6.60;;;;;;;;;;5039044;28;20025;-85
2021/05/12 01:56:14;;;;;;;9.93;6.25;;;;;;;;;;5028519;28;20037;-86
2021/05/12 01:58:40;;;;;;;12.80;5.70;;;;;;;;;;5033614;28;20510;-86
2021/05/12 02:01:06;;;;;;;9.27;5.47;;;;;;;;;;5027772;28;20036;-85
2021/05/12 02:03:32;;;;;;;6.15;4.60;;;;;;;;;;5027958;28;20120;-85
2021/05/12 02:05:58;;;;;;;8.05;5.80;;;;;;;;;;5032555;28;20433;-85
2021/05/12 02:08:26;;;;;;;8.40;5.45;;;;;;;;;;5020391;28;20476;-86
2021/05/12 02:10:54;;;;;;;8.18;5.38;;;;;;;;;;5027927;28;20528;-85
2021/05/12 02:13:22;;;;;;;10.77;6.00;;;;;;;;;;5020057;28;20443;-85
2021/05/12 02:15:48;;;;;;;11.73;5.30;;;;;;;;;;5015199;28;20037;-85
2021/05/12 02:18:14;;;;;;;9.73;5.10;;;;;;;;;;5017717;28;20041;-86
2021/05/12 02:20:40;;;;;;;9.75;4.95;;;;;;;;;;5015442;28;20169;-86
2021/05/12 02:23:08;;;;;;;6.40;4.50;;;;;;;;;;5020038;28;20424;-86
2021/05/12 02:25:34;;;;;;;7.18;4.88;;;;;;;;;;5055135;28;20052;-86
2021/05/12 02:28:00;;;;;;;7.75;4.70;;;;;;;;;;5058305;28;20036;-86
2021/05/12 02:30:26;;;;;;;9.57;4.15;;;;;;;;;;5070984;28;20032;-86
2021/05/12 02:32:55;;;;;;;8.40;4.65;;;;;;;;;;5055669;28;20025;-86
2021/05/12 02:35:21;;;;;;;8.10;4.47;;;;;;;;;;5057939;28;20056;-86
2021/05/12 02:37:47;;;;;;;9.23;4.05;;;;;;;;;;5063933;28;20051;-86
2021/05/12 02:40:14;;;;;;;6.38;4.47;;;;;;;;;;5051187;28;20503;-86
2021/05/12 02:42:40;;;;;;;7.95;3.83;;;;;;;;;;5069521;28;20121;-86
2021/05/12 02:45:07;;;;;;;7.95;4.35;;;;;;;;;;5067490;28;20432;-86
2021/05/12 02:47:33;;;;;;;8.30;4.45;;;;;;;;;;5061642;28;20025;-85
2021/05/12 02:49:59;;;;;;;7.55;4.20;;;;;;;;;;5068853;28;20115;-85
2021/05/12 02:52:25;;;;;;;9.38;4.10;;;;;;;;;;5066967;28;20391;-85
2021/05/12 02:54:51;;;;;;;11.63;4.20;;;;;;;;;;5065237;28;20489;-85
2021/05/12 02:57:18;;;;;;;7.40;4.30;;;;;;;;;;5063830;28;20029;-85
2021/05/12 02:59:44;;;;;;;10.75;4.57;;;;;;;;;;5074481;28;20774;-85
2021/05/12 03:02:10;;;;;;;6.90;4.05;;;;;;;;;;5060819;28;20340;-85
2021/05/12 03:04:36;;;;;;;11.18;4.28;;;;;;;;;;5064431;28;20119;-85
2021/05/12 03:07:02;;;;;;;6.82;4.20;;;;;;;;;;5062570;28;20115;-85
2021/05/12 03:09:28;;;;;;;8.27;4.13;;;;;;;;;;5069402;28;20024;-85
2021/05/12 03:11:54;;;;;;;9.25;4.78;;;;;;;;;;5069918;28;20037;-85
2021/05/12 03:14:21;;;;;;;8.95;4.65;;;;;;;;;;5054902;28;20029;-85
2021/05/12 03:16:47;;;;;;;9.10;4.10;;;;;;;;;;5055043;28;20109;-85
2021/05/12 03:19:13;;;;;;;7.97;4.32;;;;;;;;;;5072936;28;20048;-85
2021/05/12 03:21:39;;;;;;;8.00;5.43;;;;;;;;;;5053801;28;20220;-85
2021/05/12 03:24:06;;;;;;;7.10;4.60;;;;;;;;;;5059003;28;20032;-85
2021/05/12 03:26:32;;;;;;;10.10;5.45;;;;;;;;;;5022330;28;20025;-85
2021/05/12 03:28:58;;;;;;;9.73;5.07;;;;;;;;;;5017969;28;20370;-85
2021/05/12 03:31:24;;;;;;;9.50;5.15;;;;;;;;;;5052612;28;20040;-85
2021/05/12 03:33:55;;;;;;;7.65;4.25;;;;;;;;;;5036438;28;20159;-85
2021/05/12 03:36:21;;;;;;;5.78;4.80;;;;;;;;;;5034441;28;20052;-86
2021/05/12 03:38:47;;;;;;;6.60;4.90;;;;;;;;;;5025683;28;20026;-86
2021/05/12 03:41:13;;;;;;;6.78;4.57;;;;;;;;;;5029807;28;20028;-85
2021/05/12 03:43:39;;;;;;;11.63;5.13;;;;;;;;;;5035163;28;20092;-85
2021/05/12 03:46:05;;;;;;;7.88;4.72;;;;;;;;;;5022078;28;20125;-85
2021/05/12 03:48:31;;;;;;;8.43;5.32;;;;;;;;;;5035491;28;20033;-85
2021/05/12 03:50:57;;;;;;;11.80;5.80;;;;;;;;;;5024052;28;20021;-85
2021/05/12 03:53:23;;;;;;;9.80;5.43;;;;;;;;;;5040703;28;20156;-85
2021/05/12 03:55:49;;;;;;;7.60;4.63;;;;;;;;;;5033175;28;20123;-85
2021/05/12 03:58:15;;;;;;;6.28;5.05;;;;;;;;;;5026374;28;20480;-85
2021/05/12 04:00:41;;;;;;;12.15;5.57;;;;;;;;;;5030978;28;20026;-85
2021/05/12 04:03:07;;;;;;;9.82;5.95;;;;;;;;;;5022766;28;20397;-85
2021/05/12 04:05:33;;;;;;;8.80;5.88;;;;;;;;;;5033582;28;20032;-85
2021/05/12 04:08:01;;;;;;;8.43;5.60;;;;;;;;;;5018697;28;20057;-85
2021/05/12 04:10:27;;;;;;;8.63;5.10;;;;;;;;;;5029793;28;20036;-85
2021/05/12 04:12:53;;;;;;;9.48;5.38;;;;;;;;;;5036280;28;20330;-85
2021/05/12 04:15:19;;;;;;;7.35;5.72;;;;;;;;;;5023147;28;20524;-85
2021/05/12 04:17:45;;;;;;;7.90;5.28;;;;;;;;;;5025412;28;20033;-85
2021/05/12 04:20:13;;;;;;;10.73;5.03;;;;;;;;;;5029518;28;20037;-85
2021/05/12 04:22:39;;;;;;;8.90;4.80;;;;;;;;;;5019119;28;20013;-85
2021/05/12 04:25:07;;;;;;;10.57;5.50;;;;;;;;;;5036169;28;20082;-85
2021/05/12 04:27:33;;;;;;;9.55;5.47;;;;;;;;;;5070534;28;20078;-85
2021/05/12 04:29:59;;;;;;;7.07;5.03;;;;;;;;;;5062788;28;20024;-85
2021/05/12 04:32:25;;;;;;;11.40;5.95;;;;;;;;;;5068422;28;20115;-85
2021/05/12 04:34:51;;;;;;;8.80;4.40;;;;;;;;;;5073531;28;20047;-85
2021/05/12 04:37:17;;;;;;;7.03;4.30;;;;;;;;;;5064994;28;20034;-84
2021/05/12 04:39:43;;;;;;;7.80;4.65;;;;;;;;;;5068380;28;20024;-83
2021/05/12 04:42:09;;;;;;;10.38;4.53;;;;;;;;;;5055278;28;20029;-84
2021/05/12 04:44:35;;;;;;;8.57;4.85;;;;;;;;;;5070354;28;20120;-83
2021/05/12 04:47:01;;;;;;;8.48;4.78;;;;;;;;;;5056586;28;20071;-85
2021/05/12 04:49:27;;;;;;;8.70;5.03;;;;;;;;;;5086104;28;20032;-85
2021/05/12 04:51:53;;;;;;;10.48;5.53;;;;;;;;;;5059575;28;20021;-85
2021/05/12 04:54:19;;;;;;;9.93;5.03;;;;;;;;;;5065566;28;20472;-85
2021/05/12 04:56:45;;;;;;;10.77;5.30;;;;;;;;;;5062727;28;20033;-86
2021/05/12 04:59:11;;;;;;;12.95;4.75;;;;;;;;;;5071572;28;20568;-85
2021/05/12 05:01:37;;;;;;;8.68;4.75;;;;;;;;;;5069534;28;20025;-85
2021/05/12 05:04:04;;;;;;;8.85;5.07;;;;;;;;;;5062322;28;20024;-86
2021/05/12 05:06:33;;;;;;;10.13;5.40;;;;;;;;;;5066256;28;20400;-86
2021/05/12 05:08:59;;;;;;;7.78;5.25;;;;;;;;;;5067152;28;20029;-85
2021/05/12 05:11:25;;;;;;;7.78;4.75;;;;;;;;;;5062295;28;20036;-86
2021/05/12 05:13:51;;;;;;;10.30;4.70;;;;;;;;;;5073693;28;20456;-85
2021/05/12 05:16:16;;;;;;;6.20;4.85;;;;;;;;;;5061848;28;20028;-85
2021/05/12 05:18:44;;;;;;;10.70;5.25;;;;;;;;;;5069036;28;20395;-84
2021/05/12 05:21:11;;;;;;;9.40;5.45;;;;;;;;;;5065104;28;20488;-85
2021/05/12 05:23:38;;;;;;;8.82;5.40;;;;;;;;;;5064014;28;20107;-85
2021/05/12 05:26:04;;;;;;;8.73;5.10;;;;;;;;;;5037574;28;20497;-85
2021/05/12 05:28:31;;;;;;;13.43;6.10;;;;;;;;;;5025089;28;20030;-85
2021/05/12 05:30:57;;;;;;;10.13;5.95;;;;;;;;;;5023164;28;20426;-85
2021/05/12 05:33:23;;;;;;;8.82;5.82;;;;;;;;;;5031071;28;20492;-86
2021/05/12 05:35:49;;;;;;;13.73;6.43;;;;;;;;;;5017228;28;20068;-85
2021/05/12 05:38:15;;;;;;;10.82;6.38;;;;;;;;;;5053168;28;20024;-85
2021/05/12 05:40:41;;;;;;;9.77;5.82;;;;;;;;;;5021450;28;20484;-85
2021/05/12 05:43:09;;;;;;;11.02;6.18;;;;;;;;;;5022567;28;20029;-86
2021/05/12 05:45:35;;;;;;;13.75;6.75;;;;;;;;;;5018089;28;20040;-85
2021/05/12 05:48:16;;;;;;;8.98;5.28;;;;;;;;;;5038653;28;20661;-85
2021/05/12 05:50:42;;;;;;;10.43;5.88;;;;;;;;;;5028663;28;20030;-85
2021/05/12 05:53:08;;;;;;;10.55;6.75;;;;;;;;;;5029795;28;20900;-84
2021/05/12 05:55:34;;;;;;;13.95;6.60;;;;;;;;;;5022287;28;20037;-85
2021/05/12 05:58:00;;;;;;;13.43;6.22;;;;;;;;;;5016768;28;20033;-84
2021/05/12 06:00:26;;;;;;;8.60;5.90;;;;;;;;;;5030826;28;20032;-87
2021/05/12 06:02:52;;;;;;;11.43;6.68;;;;;;;;;;5034975;28;20125;-86
2021/05/12 06:05:18;;;;;;;12.65;6.53;;;;;;;;;;5051621;28;20123;-87
2021/05/12 06:07:44;;;;;;;13.68;8.10;;;;;;;;;;5034238;28;20042;-86
2021/05/12 06:10:10;;;;;;;14.20;7.20;;;;;;;;;;5025411;28;20492;-85
2021/05/12 06:12:36;;;;;;;12.30;7.32;;;;;;;;;;5024114;28;20025;-86
2021/05/12 06:15:03;;;;;;;10.75;6.90;;;;;;;;;;5030559;28;20430;-86
2021/05/12 06:17:29;;;;;;;12.13;6.97;;;;;;;;;;5031022;28;20076;-86
2021/05/12 06:19:55;;;;;;;11.82;6.45;;;;;;;;;;5044043;28;20036;-86
2021/05/12 06:22:21;;;;;;;11.38;5.88;;;;;;;;;;5033450;28;20032;-86
2021/05/12 06:24:47;;;;;;;9.98;5.85;;;;;;;;;;5034769;28;20071;-86
2021/05/12 06:27:13;;;;;;;11.68;7.28;;;;;;;;;;5069808;28;20141;-86
2021/05/12 06:29:39;;;;;;;11.95;7.97;;;;;;;;;;5054646;28;20101;-88
2021/05/12 06:32:06;;;;;;;12.70;7.47;;;;;;;;;;5056897;28;20067;-88
2021/05/12 06:34:33;;;;;;;13.13;7.63;;;;;;;;;;5068914;28;20032;-88
2021/05/12 06:36:59;;;;;;;16.33;8.95;;;;;;;;;;5082033;28;20052;-88
2021/05/12 06:39:25;;;;;;;12.93;8.13;;;;;;;;;;5066885;28;20025;-88
2021/05/12 06:41:51;;;;;;;14.40;9.68;;;;;;;;;;5070254;28;20020;-89
2021/05/12 06:44:17;;;;;;;14.48;8.73;;;;;;;;;;5071070;28;20123;-89
2021/05/12 06:46:43;;;;;;;16.13;9.07;;;;;;;;;;5071768;28;20116;-88
2021/05/12 06:49:09;;;;;;;14.77;9.82;;;;;;;;;;5071901;28;20021;-89
2021/05/12 06:51:35;;;;;;;15.25;9.63;;;;;;;;;;5073105;28;20024;-89
2021/05/12 06:54:01;;;;;;;15.07;9.50;;;;;;;;;;5061707;28;20062;-88
2021/05/12 06:56:27;;;;;;;18.42;10.23;;;;;;;;;;5079251;28;20024;-88
2021/05/12 06:58:53;;;;;;;16.00;9.95;;;;;;;;;;5063516;28;20024;-87
2021/05/12 07:01:20;;;;;;;15.45;9.80;;;;;;;;;;5053519;28;20427;-88
2021/05/12 07:03:46;;;;;;;17.60;9.52;;;;;;;;;;5069810;28;20395;-88
2021/05/12 07:06:24;;;;;;;16.45;10.10;;;;;;;;;;5053278;28;20383;-87
2021/05/12 07:08:50;;;;;;;15.52;10.05;;;;;;;;;;5055191;28;20082;-87
2021/05/12 07:11:17;;;;;;;14.75;9.35;;;;;;;;;;5069815;28;20507;-87
2021/05/12 07:13:43;;;;;;;19.15;10.30;;;;;;;;;;5058497;28;20017;-87
2021/05/12 07:16:09;;;;;;;17.35;10.25;;;;;;;;;;5068390;28;20056;-87
2021/05/12 07:18:35;;;;;;;15.48;9.98;;;;;;;;;;5062985;28;20040;-87
2021/05/12 07:21:01;;;;;;;14.85;9.23;;;;;;;;;;5060060;28;20021;-87
2021/05/12 07:23:28;;;;;;;14.70;9.63;;;;;;;;;;5057145;28;20381;-87
2021/05/12 07:25:56;;;;;;;13.50;9.15;;;;;;;;;;5041740;28;20052;-86
2021/05/12 07:28:22;;;;;;;15.88;9.30;;;;;;;;;;5019384;28;20094;-86
2021/05/12 07:30:48;;;;;;;16.63;9.55;;;;;;;;;;5030163;28;20143;-87
2021/05/12 07:33:14;;;;;;;15.68;9.63;;;;;;;;;;5018822;28;20316;-88
2021/05/12 07:35:40;;;;;;;15.98;9.35;;;;;;;;;;5053232;28;20029;-87
2021/05/12 07:38:06;;;;;;;16.10;10.45;;;;;;;;;;5027861;28;20476;-87
2021/05/12 07:40:36;;;;;;;16.10;10.60;;;;;;;;;;5026026;28;20025;-89
2021/05/12 07:43:05;;;;;;;18.55;11.52;;;;;;;;;;5030751;28;20025;-87
2021/05/12 07:45:31;;;;;;;17.48;11.23;;;;;;;;;;5023182;28;20067;-88
2021/05/12 07:47:57;;;;;;;24.38;10.82;;;;;;;;;;5028992;28;20044;-88
2021/05/12 07:50:23;;;;;;;20.33;11.77;;;;;;;;;;5026472;28;20029;-87
2021/05/12 07:52:49;;;;;;;17.15;9.93;;;;;;;;;;5030131;28;20030;-88
2021/05/12 07:55:15;;;;;;;21.08;10.82;;;;;;;;;;5023345;28;20353;-87
2021/05/12 07:57:42;;;;;;;18.38;10.90;;;;;;;;;;5031459;28;20025;-88
2021/05/12 08:00:09;;;;;;;17.77;10.43;;;;;;;;;;5034825;28;20056;-87
2021/05/12 08:02:35;;;;;;;21.05;11.18;;;;;;;;;;5053148;28;20392;-87
2021/05/12 08:05:01;;;;;;;18.42;11.60;;;;;;;;;;5038278;28;20476;-87
2021/05/12 08:07:27;;;;;;;16.73;10.93;;;;;;;;;;5036707;28;20051;-87
2021/05/12 08:09:53;;;;;;;20.27;11.52;;;;;;;;;;5035644;28;20031;-87
2021/05/12 08:12:19;;;;;;;16.70;11.27;;;;;;;;;;5047833;28;20021;-87
2021/05/12 08:14:45;;;;;;;16.67;10.23;;;;;;;;;;5035887;28;20040;-88
2021/05/12 08:17:11;;;;;;;21.45;11.48;;;;;;;;;;5030603;28;20083;-87
2021/05/12 08:19:37;;;;;;;18.55;11.82;;;;;;;;;;5041835;28;20037;-87
2021/05/12 08:22:06;;;;;;;21.38;11.73;;;;;;;;;;5018199;28;20029;-89
2021/05/12 08:24:32;;;;;;;19.50;12.10;;;;;;;;;;5028511;28;20079;-88
2021/05/12 08:27:01;;;;;;;15.93;10.13;;;;;;;;;;5059494;28;20024;-89
2021/05/12 08:29:28;;;;;;;18.70;11.40;;;;;;;;;;5070619;28;20115;-88
2021/05/12 08:31:54;;;;;;;17.95;10.90;;;;;;;;;;5072465;28;20028;-88
2021/05/12 08:34:20;;;;;;;21.45;12.40;;;;;;;;;;5070873;28;20028;-87
2021/05/12 08:36:46;;;;;;;17.17;10.98;;;;;;;;;;5066756;28;20025;-87
2021/05/12 08:39:12;;;;;;;18.45;10.73;;;;;;;;;;5063855;28;20057;-88
2021/05/12 08:41:40;;;;;;;18.10;11.05;;;;;;;;;;5071893;28;20052;-87
2021/05/12 08:44:07;;;;;;;19.80;11.45;;;;;;;;;;5064857;28;20024;-87
2021/05/12 08:46:34;;;;;;;17.65;11.05;;;;;;;;;;5052071;28;20119;-87
2021/05/12 08:49:01;;;;;;;14.60;10.15;;;;;;;;;;5056894;28;20025;-87
2021/05/12 08:51:27;;;;;;;15.55;10.55;;;;;;;;;;5060072;28;20021;-87
2021/05/12 08:53:56;;;;;;;17.80;10.38;;;;;;;;;;5070174;28;20413;-87
2021/05/12 08:56:22;;;;;;;12.98;9.52;;;;;;;;;;5067542;28;20058;-87
2021/05/12 08:58:48;;;;;;;17.45;10.27;;;;;;;;;;5062349;28;20025;-87
2021/05/12 09:01:16;;;;;;;17.67;10.52;;;;;;;;;;5060582;28;20037;-87
2021/05/12 09:03:43;;;;;;;17.13;12.10;;;;;;;;;;5065007;28;20017;-87
2021/05/12 09:06:09;;;;;;;17.85;10.90;;;;;;;;;;5070413;28;20059;-86
2021/05/12 09:08:36;;;;;;;15.82;10.63;;;;;;;;;;5070636;28;20033;-85
2021/05/12 09:11:02;;;;;;;17.00;10.82;;;;;;;;;;5067831;28;20421;-86
2021/05/12 09:13:38;;;;;;;16.48;10.43;;;;;;;;;;5054637;28;20043;-86
2021/05/12 09:16:17;;;;;;;15.27;10.20;;;;;;;;;;5067135;28;20025;-87
2021/05/12 09:18:43;;;;;;;17.50;10.45;;;;;;;;;;5064821;28;20024;-87
2021/05/12 09:21:09;;;;;;;14.90;9.55;;;;;;;;;;5057622;28;20052;-89
2021/05/12 09:23:39;;;;;;;13.70;8.73;;;;;;;;;;5059614;28;20076;-88
2021/05/12 09:26:11;;;;;;;15.82;9.25;;;;;;;;;;5043264;28;20050;-86
2021/05/12 09:28:37;;;;;;;15.98;9.23;;;;;;;;;;5022341;28;20074;-88
2021/05/12 09:31:07;;;;;;;15.57;9.13;;;;;;;;;;5027250;28;20021;-87
2021/05/12 09:33:34;;;;;;;15.05;9.07;;;;;;;;;;5034596;28;20028;-86
2021/05/12 09:36:00;;;;;;;13.35;8.77;;;;;;;;;;5026221;28;20428;-88
2021/05/12 09:38:28;;;;;;;14.02;9.38;;;;;;;;;;5049859;28;20396;-87
2021/05/12 09:41:03;;;;;;;16.65;9.55;;;;;;;;;;5034258;28;20029;-87
2021/05/12 09:43:31;;;;;;;17.75;9.20;;;;;;;;;;5024289;28;20040;-87
2021/05/12 09:46:14;;;;;;;13.80;8.80;;;;;;;;;;5026133;28;20059;-86
2021/05/12 09:48:40;;;;;;;;;;;;;;;;;;5027559;28;20047;-86
2021/05/12 09:51:15;;;;;;;14.05;9.60;;;;;;;;;;5043962;28;20318;-87
2021/05/12 09:53:59;;;;;;;16.50;8.52;;;;;;;;;;5046412;28;20163;-87
2021/05/12 09:56:25;;;;;;;;;;;;;;;;;;5052176;28;20039;-84
2021/05/12 09:58:55;;;;;;;14.80;9.00;;;;;;;;;;5052069;28;19909;-81
2021/05/12 10:01:37;;;;;;;12.25;8.07;;;;;;;;;;5052994;28;20025;-81
2021/05/12 10:04:18;;;;;;;17.00;9.57;;;;;;;;;;5051593;28;20106;-80
2021/05/12 10:06:44;;;;;;;19.10;9.90;;;;;;;;;;5046489;28;20297;-80
2021/05/12 10:09:36;;;;;;;14.00;9.25;;;;;;;;;;5022088;28;20025;-80
2021/05/12 10:12:07;;;;;;;13.57;8.50;;;;;;;;;;5047403;28;20124;-78
2021/05/12 10:14:34;;;;;;;14.35;8.60;;;;;;;;;;5051710;28;20504;-78
2021/05/12 10:17:01;;;;;;;14.48;8.32;;;;;;;;;;5034097;28;20021;-78
2021/05/12 10:19:27;;;;;;;13.48;8.25;;;;;;;;;;5049622;28;20025;-79
2021/05/12 10:21:53;;;;;;;15.48;9.20;;;;;;;;;;5044236;28;20036;-81
2021/05/12 10:24:19;;;;;;;12.68;7.82;;;;;;;;;;5034081;28;20041;-79
2021/05/12 10:26:46;;;;;;;12.35;8.07;;;;;;;;;;5022968;28;20139;-79
2021/05/12 10:29:17;;;;;;;11.60;8.48;;;;;;;;;;5038153;28;20163;-80
2021/05/12 10:31:43;;;;;;;12.77;8.35;;;;;;;;;;5046463;28;20561;-79
2021/05/12 10:34:09;;;;;;;11.18;7.38;;;;;;;;;;5047131;28;20100;-79
2021/05/12 10:36:35;;;;;;;11.38;7.40;;;;;;;;;;5027684;28;20556;-80
2021/05/12 10:39:05;;;;;;;13.57;7.47;;;;;;;;;;5030836;28;20032;-79
2021/05/12 10:41:48;;;;;;;11.25;7.32;;;;;;;;;;5026566;28;20107;-87
2021/05/12 10:44:20;;;;;;;8.60;5.82;;;;;;;;;;5026239;28;20071;-88
2021/05/12 10:47:14;;;;;;;15.20;7.93;;;;;;;;;;5050978;28;20448;-89
2021/05/12 10:49:49;;;;;;;14.38;7.13;;;;;;;;;;5013821;28;20388;-88
2021/05/12 10:52:15;;;;;;;12.95;7.30;;;;;;;;;;5050573;28;20029;-90
2021/05/12 10:54:43;;;;;;;12.80;7.50;;;;;;;;;;5027221;28;20028;-89
2021/05/12 10:57:10;;;;;;;12.02;7.40;;;;;;;;;;5030737;28;20037;-89
2021/05/12 10:59:40;;;;;;;12.10;7.20;;;;;;;;;;5035034;28;20040;-89
2021/05/12 11:02:06;;;;;;;10.02;6.90;;;;;;;;;;5030002;28;20040;-90
2021/05/12 11:04:32;;;;;;;12.95;6.70;;;;;;;;;;5023756;28;20021;-89
2021/05/12 11:06:58;;;;;;;13.90;8.23;;;;;;;;;;5026665;28;20119;-89
2021/05/12 11:09:38;;;;;;;12.63;7.30;;;;;;;;;;5024261;28;20086;-90
2021/05/12 11:12:09;;;;;;;12.38;7.90;;;;;;;;;;5039499;28;20162;-88
2021/05/12 11:14:36;;;;;;;12.52;6.93;;;;;;;;;;5037729;28;20472;-90
2021/05/12 11:17:03;;;;;;;14.20;7.45;;;;;;;;;;5030254;28;20061;-89
2021/05/12 11:19:39;;;;;;;9.35;6.50;;;;;;;;;;5033318;28;20021;-89
2021/05/12 11:22:23;;;;;;;11.68;7.28;;;;;;;;;;5025611;28;20032;-90
2021/05/12 11:24:52;;;;;;;10.35;7.18;;;;;;;;;;5037751;28;20037;-87
2021/05/12 11:27:28;;;;;;;13.30;7.88;;;;;;;;;;5056502;28;20017;-86
2021/05/12 11:32:24;;;;;;;11.10;7.55;;;;;;;;;;5071016;28;20028;-86
2021/05/12 11:34:50;;;;;;;14.77;8.15;;;;;;;;;;5066597;28;20017;-89
2021/05/12 11:37:24;;;;;;;12.75;8.10;;;;;;;;;;5070813;28;20078;-88
2021/05/12 11:39:52;;;;;;;14.50;8.23;;;;;;;;;;5068547;28;20053;-86
2021/05/12 11:42:25;;;;;;;11.38;7.00;;;;;;;;;;5078982;28;20025;-88
2021/05/12 11:45:01;;;;;;;13.50;8.50;;;;;;;;;;5050737;28;20043;-89
2021/05/12 11:47:28;;;;;;;17.05;9.25;;;;;;;;;;5059712;28;20075;-87
2021/05/12 11:49:54;;;;;;;13.55;8.30;;;;;;;;;;5058304;28;20036;-87
2021/05/12 11:52:30;;;;;;;15.65;8.32;;;;;;;;;;5084895;28;20028;-89
2021/05/12 11:55:09;;;;;;;17.08;9.35;;;;;;;;;;5067186;28;20150;-88
2021/05/12 11:57:38;;;;;;;13.88;9.38;;;;;;;;;;5059329;28;20479;-88
2021/05/12 12:00:07;;;;;;;18.83;8.63;;;;;;;;;;5061213;28;20498;-88
2021/05/12 12:02:33;;;;;;;16.20;9.35;;;;;;;;;;5057938;28;20051;-87
2021/05/12 12:05:02;;;;;;;14.40;9.80;;;;;;;;;;5072384;28;20021;-87
2021/05/12 12:07:30;;;;;;;20.23;9.20;;;;;;;;;;5066269;28;20164;-87
2021/05/12 12:10:06;;;;;;;15.38;10.75;;;;;;;;;;5064018;28;20016;-86
2021/05/12 12:12:35;;;;;;;16.92;10.18;;;;;;;;;;5056500;28;20435;-87
2021/05/12 12:15:09;;;;;;;18.42;10.80;;;;;;;;;;5067514;28;20029;-87
2021/05/12 12:17:35;;;;;;;18.40;12.23;;;;;;;;;;5059676;28;20040;-86
2021/05/12 12:20:02;;;;;;;16.70;10.00;;;;;;;;;;5065973;28;20036;-87
2021/05/12 12:22:28;;;;;;;17.48;11.30;;;;;;;;;;5060285;28;20060;-86
2021/05/12 12:24:54;;;;;;;18.85;11.15;;;;;;;;;;5057795;28;20608;-89
2021/05/12 12:27:21;;;;;;;18.55;12.60;;;;;;;;;;5062372;28;20017;-88
2021/05/12 12:29:50;;;;;;;15.95;11.07;;;;;;;;;;5057971;28;20031;-87
2021/05/12 12:32:16;;;;;;;17.40;10.73;;;;;;;;;;5060200;28;20050;-88
2021/05/12 12:34:46;;;;;;;18.02;11.32;;;;;;;;;;5060466;28;20036;-88
2021/05/12 12:37:16;;;;;;;15.68;10.73;;;;;;;;;;5070560;28;20077;-86
2021/05/12 12:39:55;;;;;;;16.17;11.30;;;;;;;;;;5063294;28;20074;-87
2021/05/12 12:42:33;;;;;;;15.52;10.10;;;;;;;;;;5066468;28;20395;-86
2021/05/12 12:45:01;;;;;;;14.98;9.95;;;;;;;;;;5066061;28;20032;-88
2021/05/12 12:47:27;;;;;;;13.52;9.25;;;;;;;;;;5070162;28;20017;-87
2021/05/12 12:49:55;;;;;;;13.57;9.10;;;;;;;;;;5056955;28;20085;-87
2021/05/12 12:52:23;;;;;;;13.65;9.77;;;;;;;;;;5061897;28;20111;-87
2021/05/12 12:54:58;;;;;;;15.45;11.02;;;;;;;;;;5064217;28;20046;-87
2021/05/12 12:57:25;;;;;;;18.05;10.68;;;;;;;;;;5072133;28;20107;-87
2021/05/12 13:00:08;;;;;;;15.52;11.43;;;;;;;;;;5073124;28;20028;-87
2021/05/12 13:02:35;;;;;;;16.23;10.20;;;;;;;;;;5067625;28;20062;-87
2021/05/12 13:05:14;;;;;;;16.30;11.68;;;;;;;;;;5069857;28;20051;-87
2021/05/12 13:07:40;;;;;;;17.55;11.85;;;;;;;;;;5058140;28;20101;-87
2021/05/12 13:10:25;;;;;;;14.50;10.20;;;;;;;;;;5068463;28;20476;-87
2021/05/12 13:12:51;;;;;;;16.58;9.80;;;;;;;;;;5065104;28;20041;-87
2021/05/12 13:15:21;;;;;;;18.42;10.82;;;;;;;;;;5060342;28;20032;-88
2021/05/12 13:18:06;;;;;;;14.80;11.02;;;;;;;;;;5065591;28;20028;-86
2021/05/12 13:20:33;;;;;;;15.43;10.35;;;;;;;;;;5060934;28;20089;-87
2021/05/12 13:23:07;;;;;;;15.77;10.18;;;;;;;;;;5072023;28;20020;-87
2021/05/12 13:25:35;;;;;;;16.77;11.52;;;;;;;;;;5071763;28;20044;-87
2021/05/12 13:28:07;;;;;;;14.45;10.75;;;;;;;;;;5070459;28;20456;-87
2021/05/12 13:30:34;;;;;;;17.20;11.70;;;;;;;;;;5069481;28;20020;-87
2021/05/12 13:33:00;;;;;;;19.60;11.48;;;;;;;;;;5068004;28;20158;-87
2021/05/12 13:35:26;;;;;;;15.82;10.60;;;;;;;;;;5071252;28;20020;-88
2021/05/12 13:37:52;;;;;;;14.57;9.85;;;;;;;;;;5071104;28;20027;-87
2021/05/12 13:40:19;;;;;;;17.08;11.10;;;;;;;;;;5073744;28;20024;-87
2021/05/12 13:42:45;;;;;;;15.60;10.45;;;;;;;;;;5072666;28;20107;-87
2021/05/12 13:45:13;;;;;;;15.40;10.88;;;;;;;;;;5065953;28;20043;-87
2021/05/12 13:47:39;;;;;;;14.07;10.32;;;;;;;;;;5062160;28;20020;-87
2021/05/12 13:50:06;;;;;;;16.88;10.45;;;;;;;;;;5054567;28;20029;-87
2021/05/12 13:52:58;;;;;;;17.63;12.98;;;;;;;;;;5058783;28;20475;-87
2021/05/12 13:55:29;;;;;;;17.27;11.82;;;;;;;;;;5054952;28;20036;-87
2021/05/12 14:01:34;;;;;;;20.60;12.98;;;;;;;;;;5063534;28;20129;-88
2021/05/12 14:03:28;;;;;;;21.30;11.70;;;;;;;;;;5067032;28;20032;-89
2021/05/12 14:05:55;;;;;;;15.95;11.98;;;;;;;;;;5072250;28;20039;-87
2021/05/12 14:08:21;;;;;;;17.90;12.98;;;;;;;;;;5065263;28;20017;-88
2021/05/12 14:10:48;;;;;;;17.98;13.18;;;;;;;;;;5058605;28;20040;-88
2021/05/12 14:13:23;;;;;;;20.38;13.23;;;;;;;;;;5057482;28;20494;-88
2021/05/12 14:16:08;;;;;;;23.38;12.93;;;;;;;;;;5064839;28;20028;-87
2021/05/12 14:18:35;;;;;;;22.50;14.27;;;;;;;;;;5061267;28;20495;-86
2021/05/12 14:21:01;;;;;;;19.08;13.02;;;;;;;;;;5070622;28;20020;-88
2021/05/12 14:23:27;;;;;;;17.33;11.77;;;;;;;;;;5061164;28;20149;-87
2021/05/12 14:25:53;;;;;;;18.85;12.57;;;;;;;;;;5066190;28;20053;-87
2021/05/12 14:28:37;;;;;;;15.98;12.57;;;;;;;;;;5066076;28;20032;-87
2021/05/12 14:31:03;;;;;;;24.20;13.63;;;;;;;;;;5050779;28;20053;-87
2021/05/12 14:33:29;;;;;;;20.67;12.70;;;;;;;;;;5069761;28;20100;-87
2021/05/12 14:35:55;;;;;;;17.60;12.68;;;;;;;;;;5057425;28;20177;-87
2021/05/12 14:38:22;;;;;;;20.30;12.13;;;;;;;;;;5058252;28;20055;-87
2021/05/12 14:40:49;;;;;;;21.83;13.23;;;;;;;;;;5063524;28;20040;-86